sensor_id;sensor_type;location;lat;lon;timestamp;P1;durP1;ratioP1;P2;durP2;ratioP2
34134;SDS011;20410;55.578;12.968;2024-03-23T00:55:41;29.30;;;6.17;;
34134;SDS011;20410;55.578;12.968;2024-03-23T00:58:07;29.17;;;6.60;;
34134;SDS011;20410;55.578;12.968;2024-03-23T01:00:33;19.87;;;5.40;;
34134;SDS011;20410;55.578;12.968;2024-03-23T01:02:59;23.57;;;6.17;;
34134;SDS011;20410;55.578;12.968;2024-03-23T01:05:24;28.47;;;5.83;;
34134;SDS011;20410;55.578;12.968;2024-03-23T01:07:50;32.30;;;6.77;;
34134;SDS011;20410;55.578;12.968;2024-03-23T01:10:16;27.83;;;6.20;;
34134;SDS011;20410;55.578;12.968;2024-03-23T01:12:41;31.67;;;6.77;;
34134;SDS011;20410;55.578;12.968;2024-03-23T01:15:07;29.13;;;6.93;;
34134;SDS011;20410;55.578;12.968;2024-03-23T01:17:33;26.83;;;6.20;;
34134;SDS011;20410;55.578;12.968;2024-03-23T01:19:59;30.23;;;6.07;;
34134;SDS011;20410;55.578;12.968;2024-03-23T01:22:24;36.10;;;8.00;;
34134;SDS011;20410;55.578;12.968;2024-03-23T01:24:50;29.57;;;6.90;;
34134;SDS011;20410;55.578;12.968;2024-03-23T01:27:16;24.23;;;5.77;;
34134;SDS011;20410;55.578;12.968;2024-03-23T01:29:41;29.60;;;5.90;;
34134;SDS011;20410;55.578;12.968;2024-03-23T01:32:07;30.67;;;7.33;;
34134;SDS011;20410;55.578;12.968;2024-03-23T01:34:32;31.37;;;6.67;;
34134;SDS011;20410;55.578;12.968;2024-03-23T01:36:58;29.00;;;6.33;;
34134;SDS011;20410;55.578;12.968;2024-03-23T01:39:24;27.30;;;6.27;;
34134;SDS011;20410;55.578;12.968;2024-03-23T01:41:50;26.57;;;5.77;;
34134;SDS011;20410;55.578;12.968;2024-03-23T01:44:16;22.73;;;5.57;;
34134;SDS011;20410;55.578;12.968;2024-03-23T01:46:42;23.90;;;5.63;;
34134;SDS011;20410;55.578;12.968;2024-03-23T01:49:08;25.03;;;5.20;;
34134;SDS011;20410;55.578;12.968;2024-03-23T01:51:35;30.47;;;6.47;;
34134;SDS011;20410;55.578;12.968;2024-03-23T01:54:02;22.60;;;5.87;;
34134;SDS011;20410;55.578;12.968;2024-03-23T01:56:37;28.70;;;6.27;;
34134;SDS011;20410;55.578;12.968;2024-03-23T01:59:03;31.70;;;6.77;;
34134;SDS011;20410;55.578;12.968;2024-03-23T02:01:30;24.60;;;6.07;;
34134;SDS011;20410;55.578;12.968;2024-03-23T02:03:56;29.23;;;7.03;;
34134;SDS011;20410;55.578;12.968;2024-03-23T02:06:22;29.40;;;5.83;;
34134;SDS011;20410;55.578;12.968;2024-03-23T02:08:49;23.00;;;6.00;;
34134;SDS011;20410;55.578;12.968;2024-03-23T02:11:15;30.47;;;6.33;;
34134;SDS011;20410;55.578;12.968;2024-03-23T02:13:40;28.07;;;6.43;;
34134;SDS011;20410;55.578;12.968;2024-03-23T02:16:06;33.50;;;7.20;;
34134;SDS011;20410;55.578;12.968;2024-03-23T02:18:32;19.20;;;5.63;;
34134;SDS011;20410;55.578;12.968;2024-03-23T02:20:58;26.47;;;7.43;;
34134;SDS011;20410;55.578;12.968;2024-03-23T02:23:23;28.73;;;6.67;;
34134;SDS011;20410;55.578;12.968;2024-03-23T02:25:52;30.23;;;6.77;;
34134;SDS011;20410;55.578;12.968;2024-03-23T02:28:20;30.57;;;7.10;;
34134;SDS011;20410;55.578;12.968;2024-03-23T02:30:47;28.33;;;6.23;;
34134;SDS011;20410;55.578;12.968;2024-03-23T02:33:16;28.70;;;6.43;;
34134;SDS011;20410;55.578;12.968;2024-03-23T02:35:43;26.33;;;6.40;;
34134;SDS011;20410;55.578;12.968;2024-03-23T02:38:09;28.17;;;5.93;;
34134;SDS011;20410;55.578;12.968;2024-03-23T02:40:34;31.87;;;7.40;;
34134;SDS011;20410;55.578;12.968;2024-03-23T02:43:02;27.53;;;5.60;;
34134;SDS011;20410;55.578;12.968;2024-03-23T02:45:27;33.57;;;6.93;;
34134;SDS011;20410;55.578;12.968;2024-03-23T02:47:53;29.07;;;5.90;;
34134;SDS011;20410;55.578;12.968;2024-03-23T02:50:19;26.00;;;5.77;;
34134;SDS011;20410;55.578;12.968;2024-03-23T02:52:44;31.73;;;5.87;;
34134;SDS011;20410;55.578;12.968;2024-03-23T02:55:10;31.00;;;6.53;;
34134;SDS011;20410;55.578;12.968;2024-03-23T02:57:35;29.23;;;6.07;;
34134;SDS011;20410;55.578;12.968;2024-03-23T03:00:01;25.40;;;5.37;;
34134;SDS011;20410;55.578;12.968;2024-03-23T03:02:27;30.77;;;6.47;;
34134;SDS011;20410;55.578;12.968;2024-03-23T03:04:52;30.87;;;5.87;;
34134;SDS011;20410;55.578;12.968;2024-03-23T03:07:18;33.10;;;6.67;;
34134;SDS011;20410;55.578;12.968;2024-03-23T03:09:44;25.07;;;5.70;;
34134;SDS011;20410;55.578;12.968;2024-03-23T03:12:09;34.13;;;6.13;;
34134;SDS011;20410;55.578;12.968;2024-03-23T03:14:35;35.07;;;6.60;;
34134;SDS011;20410;55.578;12.968;2024-03-23T03:17:00;24.27;;;6.07;;
34134;SDS011;20410;55.578;12.968;2024-03-23T03:19:26;27.70;;;6.37;;
34134;SDS011;20410;55.578;12.968;2024-03-23T03:21:52;30.30;;;6.20;;
34134;SDS011;20410;55.578;12.968;2024-03-23T03:24:18;28.30;;;6.73;;
34134;SDS011;20410;55.578;12.968;2024-03-23T03:26:43;29.67;;;6.57;;
34134;SDS011;20410;55.578;12.968;2024-03-23T03:29:09;30.20;;;6.23;;
34134;SDS011;20410;55.578;12.968;2024-03-23T03:31:35;28.33;;;5.63;;
34134;SDS011;20410;55.578;12.968;2024-03-23T03:34:01;32.43;;;6.33;;
34134;SDS011;20410;55.578;12.968;2024-03-23T03:36:27;28.03;;;6.67;;
34134;SDS011;20410;55.578;12.968;2024-03-23T03:38:53;23.47;;;6.40;;
34134;SDS011;20410;55.578;12.968;2024-03-23T03:41:18;31.77;;;7.03;;
34134;SDS011;20410;55.578;12.968;2024-03-23T03:43:44;26.27;;;6.07;;
34134;SDS011;20410;55.578;12.968;2024-03-23T03:46:10;23.83;;;5.60;;
34134;SDS011;20410;55.578;12.968;2024-03-23T03:48:36;23.53;;;6.30;;
34134;SDS011;20410;55.578;12.968;2024-03-23T03:51:01;29.27;;;7.23;;
34134;SDS011;20410;55.578;12.968;2024-03-23T03:53:27;30.00;;;6.40;;
34134;SDS011;20410;55.578;12.968;2024-03-23T03:55:53;32.40;;;6.40;;
34134;SDS011;20410;55.578;12.968;2024-03-23T03:58:19;34.70;;;6.23;;
34134;SDS011;20410;55.578;12.968;2024-03-23T04:00:44;26.80;;;5.90;;
34134;SDS011;20410;55.578;12.968;2024-03-23T04:03:10;26.20;;;5.73;;
34134;SDS011;20410;55.578;12.968;2024-03-23T04:05:35;26.77;;;6.57;;
34134;SDS011;20410;55.578;12.968;2024-03-23T04:08:01;26.83;;;6.17;;
34134;SDS011;20410;55.578;12.968;2024-03-23T04:10:27;24.30;;;5.87;;
34134;SDS011;20410;55.578;12.968;2024-03-23T04:12:52;27.30;;;6.00;;
34134;SDS011;20410;55.578;12.968;2024-03-23T04:15:18;25.03;;;6.97;;
34134;SDS011;20410;55.578;12.968;2024-03-23T04:17:45;25.77;;;6.40;;
34134;SDS011;20410;55.578;12.968;2024-03-23T04:20:10;27.97;;;5.90;;
34134;SDS011;20410;55.578;12.968;2024-03-23T04:22:38;25.97;;;6.30;;
34134;SDS011;20410;55.578;12.968;2024-03-23T04:25:05;22.00;;;5.10;;
34134;SDS011;20410;55.578;12.968;2024-03-23T04:27:35;32.50;;;6.97;;
34134;SDS011;20410;55.578;12.968;2024-03-23T04:30:02;26.33;;;5.70;;
34134;SDS011;20410;55.578;12.968;2024-03-23T04:32:29;25.23;;;5.90;;
34134;SDS011;20410;55.578;12.968;2024-03-23T04:34:55;30.70;;;6.43;;
34134;SDS011;20410;55.578;12.968;2024-03-23T04:37:21;23.30;;;6.40;;
34134;SDS011;20410;55.578;12.968;2024-03-23T04:39:47;24.13;;;6.07;;
34134;SDS011;20410;55.578;12.968;2024-03-23T04:42:14;32.30;;;6.43;;
34134;SDS011;20410;55.578;12.968;2024-03-23T04:44:40;28.53;;;6.80;;
34134;SDS011;20410;55.578;12.968;2024-03-23T04:47:06;32.33;;;6.47;;
34134;SDS011;20410;55.578;12.968;2024-03-23T04:49:32;30.47;;;6.23;;
34134;SDS011;20410;55.578;12.968;2024-03-23T04:51:57;25.70;;;6.53;;
34134;SDS011;20410;55.578;12.968;2024-03-23T04:54:23;34.83;;;7.50;;
34134;SDS011;20410;55.578;12.968;2024-03-23T04:56:49;32.77;;;7.07;;
34134;SDS011;20410;55.578;12.968;2024-03-23T04:59:14;31.00;;;6.07;;
34134;SDS011;20410;55.578;12.968;2024-03-23T05:01:40;27.90;;;6.40;;
34134;SDS011;20410;55.578;12.968;2024-03-23T05:04:07;21.37;;;5.73;;
34134;SDS011;20410;55.578;12.968;2024-03-23T05:06:33;24.53;;;6.13;;
34134;SDS011;20410;55.578;12.968;2024-03-23T05:08:59;29.17;;;6.90;;
34134;SDS011;20410;55.578;12.968;2024-03-23T05:11:27;29.17;;;6.73;;
34134;SDS011;20410;55.578;12.968;2024-03-23T05:13:53;28.43;;;6.67;;
34134;SDS011;20410;55.578;12.968;2024-03-23T05:16:18;33.27;;;6.37;;
34134;SDS011;20410;55.578;12.968;2024-03-23T05:18:44;32.10;;;6.30;;
34134;SDS011;20410;55.578;12.968;2024-03-23T05:21:12;25.80;;;5.70;;
34134;SDS011;20410;55.578;12.968;2024-03-23T05:23:38;39.93;;;7.07;;
34134;SDS011;20410;55.578;12.968;2024-03-23T05:26:03;30.03;;;5.90;;
34134;SDS011;20410;55.578;12.968;2024-03-23T05:28:29;27.30;;;6.20;;
34134;SDS011;20410;55.578;12.968;2024-03-23T05:30:55;32.90;;;6.93;;
34134;SDS011;20410;55.578;12.968;2024-03-23T05:33:24;28.13;;;6.60;;
34134;SDS011;20410;55.578;12.968;2024-03-23T05:36:01;35.67;;;6.50;;
34134;SDS011;20410;55.578;12.968;2024-03-23T05:38:26;26.73;;;6.20;;
34134;SDS011;20410;55.578;12.968;2024-03-23T05:40:56;30.47;;;6.47;;
34134;SDS011;20410;55.578;12.968;2024-03-23T05:43:25;33.27;;;6.47;;
34134;SDS011;20410;55.578;12.968;2024-03-23T05:45:57;27.83;;;5.33;;
34134;SDS011;20410;55.578;12.968;2024-03-23T05:48:25;35.80;;;6.17;;
34134;SDS011;20410;55.578;12.968;2024-03-23T05:50:51;25.17;;;5.73;;
34134;SDS011;20410;55.578;12.968;2024-03-23T05:53:17;29.67;;;7.07;;
34134;SDS011;20410;55.578;12.968;2024-03-23T05:55:47;27.77;;;6.27;;
34134;SDS011;20410;55.578;12.968;2024-03-23T05:58:16;30.40;;;6.07;;
34134;SDS011;20410;55.578;12.968;2024-03-23T06:00:42;28.43;;;6.23;;
34134;SDS011;20410;55.578;12.968;2024-03-23T06:03:08;32.73;;;6.37;;
34134;SDS011;20410;55.578;12.968;2024-03-23T06:05:35;28.77;;;6.33;;
34134;SDS011;20410;55.578;12.968;2024-03-23T06:08:01;27.07;;;5.50;;
34134;SDS011;20410;55.578;12.968;2024-03-23T06:10:27;28.13;;;5.87;;
34134;SDS011;20410;55.578;12.968;2024-03-23T06:12:53;28.63;;;5.60;;
34134;SDS011;20410;55.578;12.968;2024-03-23T06:15:19;27.20;;;6.47;;
34134;SDS011;20410;55.578;12.968;2024-03-23T06:17:44;34.20;;;6.33;;
34134;SDS011;20410;55.578;12.968;2024-03-23T06:20:10;28.40;;;5.90;;
34134;SDS011;20410;55.578;12.968;2024-03-23T06:22:36;28.50;;;6.40;;
34134;SDS011;20410;55.578;12.968;2024-03-23T06:25:02;31.47;;;7.03;;
34134;SDS011;20410;55.578;12.968;2024-03-23T06:27:28;25.43;;;6.10;;
34134;SDS011;20410;55.578;12.968;2024-03-23T06:29:54;25.57;;;5.83;;
34134;SDS011;20410;55.578;12.968;2024-03-23T06:32:20;28.57;;;5.57;;
34134;SDS011;20410;55.578;12.968;2024-03-23T06:34:46;27.37;;;6.20;;
34134;SDS011;20410;55.578;12.968;2024-03-23T06:37:11;28.47;;;6.63;;
34134;SDS011;20410;55.578;12.968;2024-03-23T06:39:37;27.53;;;5.97;;
34134;SDS011;20410;55.578;12.968;2024-03-23T06:42:03;27.60;;;5.83;;
34134;SDS011;20410;55.578;12.968;2024-03-23T06:44:29;27.17;;;6.27;;
34134;SDS011;20410;55.578;12.968;2024-03-23T06:46:55;23.47;;;5.83;;
34134;SDS011;20410;55.578;12.968;2024-03-23T06:49:22;28.80;;;7.33;;
34134;SDS011;20410;55.578;12.968;2024-03-23T06:51:48;28.60;;;6.77;;
34134;SDS011;20410;55.578;12.968;2024-03-23T06:54:13;25.57;;;6.20;;
34134;SDS011;20410;55.578;12.968;2024-03-23T06:56:39;27.00;;;6.50;;
34134;SDS011;20410;55.578;12.968;2024-03-23T06:59:05;26.20;;;6.03;;
34134;SDS011;20410;55.578;12.968;2024-03-23T07:01:31;25.47;;;5.73;;
34134;SDS011;20410;55.578;12.968;2024-03-23T07:03:57;34.67;;;7.47;;
34134;SDS011;20410;55.578;12.968;2024-03-23T07:06:22;29.90;;;6.03;;
34134;SDS011;20410;55.578;12.968;2024-03-23T07:08:48;29.80;;;5.93;;
34134;SDS011;20410;55.578;12.968;2024-03-23T07:11:20;25.93;;;5.80;;
34134;SDS011;20410;55.578;12.968;2024-03-23T07:13:46;26.30;;;6.27;;
34134;SDS011;20410;55.578;12.968;2024-03-23T07:16:14;27.13;;;6.03;;
34134;SDS011;20410;55.578;12.968;2024-03-23T07:18:41;25.70;;;5.83;;
34134;SDS011;20410;55.578;12.968;2024-03-23T07:21:06;29.87;;;6.23;;
34134;SDS011;20410;55.578;12.968;2024-03-23T07:23:32;23.73;;;6.20;;
34134;SDS011;20410;55.578;12.968;2024-03-23T07:26:04;23.97;;;6.53;;
34134;SDS011;20410;55.578;12.968;2024-03-23T07:28:33;26.87;;;6.47;;
34134;SDS011;20410;55.578;12.968;2024-03-23T07:31:08;30.33;;;6.00;;
34134;SDS011;20410;55.578;12.968;2024-03-23T07:33:36;27.17;;;5.97;;
34134;SDS011;20410;55.578;12.968;2024-03-23T07:36:03;30.07;;;6.43;;
34134;SDS011;20410;55.578;12.968;2024-03-23T07:38:29;29.17;;;6.93;;
34134;SDS011;20410;55.578;12.968;2024-03-23T07:41:04;27.37;;;6.10;;
34134;SDS011;20410;55.578;12.968;2024-03-23T07:43:35;25.10;;;6.93;;
34134;SDS011;20410;55.578;12.968;2024-03-23T07:46:01;25.87;;;6.23;;
34134;SDS011;20410;55.578;12.968;2024-03-23T07:48:29;26.80;;;6.50;;
34134;SDS011;20410;55.578;12.968;2024-03-23T07:51:08;30.37;;;7.10;;
34134;SDS011;20410;55.578;12.968;2024-03-23T07:53:47;22.27;;;5.77;;
34134;SDS011;20410;55.578;12.968;2024-03-23T07:56:13;25.47;;;6.30;;
34134;SDS011;20410;55.578;12.968;2024-03-23T07:58:40;27.30;;;5.97;;
34134;SDS011;20410;55.578;12.968;2024-03-23T08:01:07;23.37;;;5.60;;
34134;SDS011;20410;55.578;12.968;2024-03-23T08:03:37;27.37;;;5.37;;
34134;SDS011;20410;55.578;12.968;2024-03-23T08:06:08;22.47;;;5.90;;
34134;SDS011;20410;55.578;12.968;2024-03-23T08:08:41;28.03;;;6.17;;
34134;SDS011;20410;55.578;12.968;2024-03-23T08:11:08;25.37;;;6.23;;
34134;SDS011;20410;55.578;12.968;2024-03-23T08:13:34;20.57;;;5.10;;
34134;SDS011;20410;55.578;12.968;2024-03-23T08:16:01;21.83;;;6.13;;
34134;SDS011;20410;55.578;12.968;2024-03-23T08:18:28;24.23;;;5.40;;
34134;SDS011;20410;55.578;12.968;2024-03-23T08:20:58;22.57;;;5.87;;
34134;SDS011;20410;55.578;12.968;2024-03-23T08:23:25;24.23;;;5.47;;
34134;SDS011;20410;55.578;12.968;2024-03-23T08:25:52;25.07;;;5.67;;
34134;SDS011;20410;55.578;12.968;2024-03-23T08:28:22;21.53;;;5.57;;
34134;SDS011;20410;55.578;12.968;2024-03-23T08:30:47;26.27;;;6.03;;
34134;SDS011;20410;55.578;12.968;2024-03-23T08:33:14;21.73;;;5.10;;
34134;SDS011;20410;55.578;12.968;2024-03-23T08:35:40;22.53;;;5.97;;
34134;SDS011;20410;55.578;12.968;2024-03-23T08:38:06;17.43;;;4.90;;
34134;SDS011;20410;55.578;12.968;2024-03-23T08:40:32;23.53;;;6.00;;
34134;SDS011;20410;55.578;12.968;2024-03-23T08:42:58;22.17;;;5.67;;
34134;SDS011;20410;55.578;12.968;2024-03-23T08:45:26;20.57;;;5.60;;
34134;SDS011;20410;55.578;12.968;2024-03-23T08:47:52;19.37;;;5.63;;
34134;SDS011;20410;55.578;12.968;2024-03-23T08:50:18;23.07;;;5.70;;
34134;SDS011;20410;55.578;12.968;2024-03-23T08:52:43;27.77;;;6.53;;
34134;SDS011;20410;55.578;12.968;2024-03-23T08:55:09;21.10;;;5.63;;
34134;SDS011;20410;55.578;12.968;2024-03-23T08:57:35;21.43;;;5.67;;
34134;SDS011;20410;55.578;12.968;2024-03-23T09:00:01;21.47;;;6.10;;
34134;SDS011;20410;55.578;12.968;2024-03-23T09:02:27;26.43;;;5.87;;
34134;SDS011;20410;55.578;12.968;2024-03-23T09:04:53;24.00;;;5.80;;
34134;SDS011;20410;55.578;12.968;2024-03-23T09:07:18;20.23;;;5.43;;
34134;SDS011;20410;55.578;12.968;2024-03-23T09:09:44;18.33;;;5.43;;
34134;SDS011;20410;55.578;12.968;2024-03-23T09:12:09;24.17;;;5.87;;
34134;SDS011;20410;55.578;12.968;2024-03-23T09:14:35;22.03;;;5.17;;
34134;SDS011;20410;55.578;12.968;2024-03-23T09:17:00;21.97;;;5.23;;
34134;SDS011;20410;55.578;12.968;2024-03-23T09:19:27;27.83;;;5.67;;
34134;SDS011;20410;55.578;12.968;2024-03-23T09:21:55;21.17;;;5.43;;
34134;SDS011;20410;55.578;12.968;2024-03-23T09:24:21;19.70;;;5.30;;
34134;SDS011;20410;55.578;12.968;2024-03-23T09:26:46;15.80;;;4.90;;
34134;SDS011;20410;55.578;12.968;2024-03-23T09:29:12;22.57;;;5.67;;
34134;SDS011;20410;55.578;12.968;2024-03-23T09:31:39;19.70;;;6.00;;
34134;SDS011;20410;55.578;12.968;2024-03-23T09:34:05;24.07;;;5.30;;
34134;SDS011;20410;55.578;12.968;2024-03-23T09:36:31;20.13;;;5.37;;
34134;SDS011;20410;55.578;12.968;2024-03-23T09:38:57;21.10;;;5.00;;
34134;SDS011;20410;55.578;12.968;2024-03-23T09:41:22;18.63;;;4.70;;
34134;SDS011;20410;55.578;12.968;2024-03-23T09:43:48;18.47;;;5.00;;
34134;SDS011;20410;55.578;12.968;2024-03-23T09:46:17;22.00;;;5.13;;
34134;SDS011;20410;55.578;12.968;2024-03-23T09:48:42;19.90;;;5.13;;
34134;SDS011;20410;55.578;12.968;2024-03-23T09:51:11;21.30;;;5.40;;
34134;SDS011;20410;55.578;12.968;2024-03-23T09:53:37;24.37;;;6.03;;
34134;SDS011;20410;55.578;12.968;2024-03-23T09:56:03;20.10;;;4.33;;
34134;SDS011;20410;55.578;12.968;2024-03-23T09:58:29;20.00;;;4.67;;
34134;SDS011;20410;55.578;12.968;2024-03-23T10:00:57;19.50;;;5.17;;
34134;SDS011;20410;55.578;12.968;2024-03-23T10:03:22;20.10;;;5.47;;
34134;SDS011;20410;55.578;12.968;2024-03-23T10:05:48;16.00;;;4.67;;
34134;SDS011;20410;55.578;12.968;2024-03-23T10:08:26;20.10;;;5.03;;
34134;SDS011;20410;55.578;12.968;2024-03-23T10:10:54;18.50;;;4.70;;
34134;SDS011;20410;55.578;12.968;2024-03-23T10:13:23;21.13;;;5.33;;
34134;SDS011;20410;55.578;12.968;2024-03-23T10:15:54;17.20;;;4.90;;
34134;SDS011;20410;55.578;12.968;2024-03-23T10:18:24;20.93;;;5.00;;
34134;SDS011;20410;55.578;12.968;2024-03-23T10:20:52;15.63;;;4.67;;
34134;SDS011;20410;55.578;12.968;2024-03-23T10:23:32;16.37;;;4.87;;
34134;SDS011;20410;55.578;12.968;2024-03-23T10:29:02;17.77;;;4.50;;
34134;SDS011;20410;55.578;12.968;2024-03-23T10:31:36;18.50;;;4.67;;
34134;SDS011;20410;55.578;12.968;2024-03-23T10:34:02;20.57;;;5.03;;
34134;SDS011;20410;55.578;12.968;2024-03-23T10:36:29;15.20;;;4.37;;
34134;SDS011;20410;55.578;12.968;2024-03-23T10:38:55;20.90;;;5.00;;
34134;SDS011;20410;55.578;12.968;2024-03-23T10:41:27;16.93;;;4.50;;
34134;SDS011;20410;55.578;12.968;2024-03-23T10:43:54;16.07;;;4.47;;
34134;SDS011;20410;55.578;12.968;2024-03-23T10:46:22;19.87;;;5.10;;
34134;SDS011;20410;55.578;12.968;2024-03-23T10:48:48;15.90;;;4.73;;
34134;SDS011;20410;55.578;12.968;2024-03-23T10:51:14;16.03;;;4.83;;
34134;SDS011;20410;55.578;12.968;2024-03-23T10:53:40;16.60;;;4.60;;
34134;SDS011;20410;55.578;12.968;2024-03-23T10:56:06;17.07;;;4.50;;
34134;SDS011;20410;55.578;12.968;2024-03-23T10:58:35;15.57;;;4.50;;
34134;SDS011;20410;55.578;12.968;2024-03-23T11:01:04;17.27;;;5.03;;
34134;SDS011;20410;55.578;12.968;2024-03-23T11:03:30;15.60;;;4.30;;
34134;SDS011;20410;55.578;12.968;2024-03-23T11:06:01;14.87;;;4.17;;
34134;SDS011;20410;55.578;12.968;2024-03-23T11:08:36;14.37;;;3.83;;
34134;SDS011;20410;55.578;12.968;2024-03-23T11:11:19;11.23;;;4.00;;
34134;SDS011;20410;55.578;12.968;2024-03-23T11:13:50;11.67;;;3.80;;
34134;SDS011;20410;55.578;12.968;2024-03-23T11:16:17;13.83;;;3.77;;
34134;SDS011;20410;55.578;12.968;2024-03-23T11:18:46;12.30;;;3.77;;
34134;SDS011;20410;55.578;12.968;2024-03-23T11:24:17;14.13;;;3.83;;
34134;SDS011;20410;55.578;12.968;2024-03-23T11:26:44;12.67;;;3.87;;
34134;SDS011;20410;55.578;12.968;2024-03-23T11:29:10;13.57;;;4.37;;
34134;SDS011;20410;55.578;12.968;2024-03-23T11:31:37;14.20;;;4.17;;
34134;SDS011;20410;55.578;12.968;2024-03-23T11:34:05;14.37;;;4.00;;
34134;SDS011;20410;55.578;12.968;2024-03-23T11:36:32;11.57;;;3.47;;
34134;SDS011;20410;55.578;12.968;2024-03-23T11:38:57;13.20;;;3.63;;
34134;SDS011;20410;55.578;12.968;2024-03-23T11:41:23;15.27;;;3.90;;
34134;SDS011;20410;55.578;12.968;2024-03-23T11:43:49;12.73;;;3.80;;
34134;SDS011;20410;55.578;12.968;2024-03-23T11:46:24;10.57;;;3.30;;
34134;SDS011;20410;55.578;12.968;2024-03-23T11:48:50;11.83;;;3.90;;
34134;SDS011;20410;55.578;12.968;2024-03-23T11:51:18;11.73;;;3.47;;
34134;SDS011;20410;55.578;12.968;2024-03-23T11:53:44;14.60;;;3.83;;
34134;SDS011;20410;55.578;12.968;2024-03-23T11:56:10;11.87;;;3.70;;
34134;SDS011;20410;55.578;12.968;2024-03-23T11:58:38;9.27;;;2.93;;
34134;SDS011;20410;55.578;12.968;2024-03-23T12:01:04;12.37;;;3.40;;
34134;SDS011;20410;55.578;12.968;2024-03-23T12:03:35;13.53;;;3.60;;
34134;SDS011;20410;55.578;12.968;2024-03-23T12:06:01;14.80;;;3.47;;
34134;SDS011;20410;55.578;12.968;2024-03-23T12:13:43;15.27;;;3.67;;
34134;SDS011;20410;55.578;12.968;2024-03-23T12:16:15;14.63;;;3.93;;
34134;SDS011;20410;55.578;12.968;2024-03-23T12:18:42;11.77;;;3.33;;
34134;SDS011;20410;55.578;12.968;2024-03-23T12:21:12;12.37;;;3.70;;
34134;SDS011;20410;55.578;12.968;2024-03-23T12:23:41;13.23;;;3.87;;
34134;SDS011;20410;55.578;12.968;2024-03-23T12:26:09;12.83;;;3.80;;
34134;SDS011;20410;55.578;12.968;2024-03-23T12:28:35;13.10;;;3.63;;
34134;SDS011;20410;55.578;12.968;2024-03-23T12:31:00;14.23;;;3.40;;
34134;SDS011;20410;55.578;12.968;2024-03-23T12:33:26;4.03;;;1.57;;
34134;SDS011;20410;55.578;12.968;2024-03-23T12:35:51;5.10;;;1.60;;
34134;SDS011;20410;55.578;12.968;2024-03-23T12:38:18;5.80;;;1.90;;
34134;SDS011;20410;55.578;12.968;2024-03-23T12:40:47;3.73;;;1.60;;
34134;SDS011;20410;55.578;12.968;2024-03-23T12:43:14;4.53;;;1.60;;
34134;SDS011;20410;55.578;12.968;2024-03-23T12:45:40;6.83;;;1.87;;
34134;SDS011;20410;55.578;12.968;2024-03-23T12:48:05;5.23;;;2.00;;
34134;SDS011;20410;55.578;12.968;2024-03-23T12:50:32;10.03;;;2.57;;
34134;SDS011;20410;55.578;12.968;2024-03-23T12:52:57;7.47;;;2.37;;
34134;SDS011;20410;55.578;12.968;2024-03-23T12:55:23;7.10;;;2.28;;
34134;SDS011;20410;55.578;12.968;2024-03-23T12:57:49;9.32;;;2.90;;
34134;SDS011;20410;55.578;12.968;2024-03-23T13:00:14;9.73;;;2.73;;
34134;SDS011;20410;55.578;12.968;2024-03-23T13:02:43;11.63;;;2.87;;
34134;SDS011;20410;55.578;12.968;2024-03-23T13:05:09;5.27;;;1.77;;
34134;SDS011;20410;55.578;12.968;2024-03-23T13:07:35;4.47;;;1.50;;
34134;SDS011;20410;55.578;12.968;2024-03-23T13:10:02;3.30;;;1.60;;
34134;SDS011;20410;55.578;12.968;2024-03-23T13:12:28;4.27;;;1.40;;
34134;SDS011;20410;55.578;12.968;2024-03-23T13:14:54;6.63;;;1.83;;
34134;SDS011;20410;55.578;12.968;2024-03-23T13:17:22;7.93;;;2.20;;
34134;SDS011;20410;55.578;12.968;2024-03-23T13:19:48;4.60;;;2.00;;
34134;SDS011;20410;55.578;12.968;2024-03-23T13:22:13;5.17;;;2.00;;
34134;SDS011;20410;55.578;12.968;2024-03-23T13:24:39;10.30;;;2.50;;
34134;SDS011;20410;55.578;12.968;2024-03-23T13:27:05;6.97;;;2.67;;
34134;SDS011;20410;55.578;12.968;2024-03-23T13:29:32;9.63;;;2.73;;
34134;SDS011;20410;55.578;12.968;2024-03-23T13:31:59;8.23;;;2.27;;
34134;SDS011;20410;55.578;12.968;2024-03-23T13:34:25;8.03;;;2.23;;
34134;SDS011;20410;55.578;12.968;2024-03-23T13:36:54;6.57;;;1.90;;
34134;SDS011;20410;55.578;12.968;2024-03-23T13:39:23;5.73;;;1.87;;
34134;SDS011;20410;55.578;12.968;2024-03-23T13:41:54;4.83;;;1.93;;
34134;SDS011;20410;55.578;12.968;2024-03-23T13:44:26;2.10;;;1.30;;
34134;SDS011;20410;55.578;12.968;2024-03-23T13:47:04;3.77;;;1.90;;
34134;SDS011;20410;55.578;12.968;2024-03-23T13:49:35;4.73;;;1.83;;
34134;SDS011;20410;55.578;12.968;2024-03-23T13:52:07;3.77;;;1.53;;
34134;SDS011;20410;55.578;12.968;2024-03-23T13:54:40;3.40;;;1.50;;
34134;SDS011;20410;55.578;12.968;2024-03-23T13:57:11;4.30;;;1.40;;
34134;SDS011;20410;55.578;12.968;2024-03-23T13:59:39;2.60;;;1.40;;
34134;SDS011;20410;55.578;12.968;2024-03-23T14:02:07;4.93;;;2.10;;
34134;SDS011;20410;55.578;12.968;2024-03-23T14:04:57;3.57;;;1.73;;
34134;SDS011;20410;55.578;12.968;2024-03-23T14:11:10;5.90;;;2.17;;
34134;SDS011;20410;55.578;12.968;2024-03-23T14:14:06;5.90;;;1.90;;
34134;SDS011;20410;55.578;12.968;2024-03-23T14:16:46;5.30;;;2.10;;
34134;SDS011;20410;55.578;12.968;2024-03-23T14:19:14;7.50;;;2.43;;
34134;SDS011;20410;55.578;12.968;2024-03-23T14:21:39;5.97;;;2.07;;
34134;SDS011;20410;55.578;12.968;2024-03-23T14:24:05;4.33;;;2.03;;
34134;SDS011;20410;55.578;12.968;2024-03-23T14:26:39;4.90;;;1.93;;
34134;SDS011;20410;55.578;12.968;2024-03-23T14:29:06;6.83;;;1.70;;
34134;SDS011;20410;55.578;12.968;2024-03-23T14:31:32;4.20;;;1.90;;
34134;SDS011;20410;55.578;12.968;2024-03-23T14:33:58;5.47;;;2.13;;
34134;SDS011;20410;55.578;12.968;2024-03-23T14:36:24;7.17;;;2.37;;
34134;SDS011;20410;55.578;12.968;2024-03-23T14:38:51;5.93;;;2.30;;
34134;SDS011;20410;55.578;12.968;2024-03-23T14:41:17;4.47;;;1.93;;
34134;SDS011;20410;55.578;12.968;2024-03-23T14:43:43;7.60;;;2.23;;
34134;SDS011;20410;55.578;12.968;2024-03-23T14:46:14;7.47;;;2.10;;
34134;SDS011;20410;55.578;12.968;2024-03-23T14:48:41;6.27;;;2.10;;
34134;SDS011;20410;55.578;12.968;2024-03-23T14:51:08;5.43;;;2.00;;
34134;SDS011;20410;55.578;12.968;2024-03-23T14:53:34;3.97;;;2.23;;
34134;SDS011;20410;55.578;12.968;2024-03-23T14:56:01;5.60;;;2.20;;
34134;SDS011;20410;55.578;12.968;2024-03-23T14:58:27;5.27;;;2.00;;
34134;SDS011;20410;55.578;12.968;2024-03-23T15:01:04;7.47;;;2.03;;
34134;SDS011;20410;55.578;12.968;2024-03-23T15:03:31;4.27;;;2.00;;
34134;SDS011;20410;55.578;12.968;2024-03-23T15:05:57;5.83;;;2.23;;
34134;SDS011;20410;55.578;12.968;2024-03-23T15:08:24;6.97;;;2.07;;
34134;SDS011;20410;55.578;12.968;2024-03-23T15:10:50;6.77;;;2.37;;
34134;SDS011;20410;55.578;12.968;2024-03-23T15:13:16;8.23;;;2.50;;
34134;SDS011;20410;55.578;12.968;2024-03-23T15:15:42;5.77;;;2.60;;
34134;SDS011;20410;55.578;12.968;2024-03-23T15:18:12;6.20;;;2.13;;
34134;SDS011;20410;55.578;12.968;2024-03-23T15:20:39;4.53;;;2.20;;
34134;SDS011;20410;55.578;12.968;2024-03-23T15:23:16;5.20;;;2.00;;
34134;SDS011;20410;55.578;12.968;2024-03-23T15:25:42;5.00;;;2.00;;
34134;SDS011;20410;55.578;12.968;2024-03-23T15:28:07;9.40;;;2.30;;
34134;SDS011;20410;55.578;12.968;2024-03-23T15:30:33;8.07;;;2.10;;
34134;SDS011;20410;55.578;12.968;2024-03-23T15:32:58;6.73;;;2.37;;